Time;durP1;ratioP1;P1;durP2;ratioP2;P2;SDS_P1;SDS_P2;PMS_P1;PMS_P2;Temp;Humidity;BMP_temperature;BMP_pressure;BME280_temperature;BME280_humidity;BME280_pressure;Samples;Min_cycle;Max_cycle;Signal;HPM_P1;HPM_P2
2023/05/20 00:00:49;;;;;;;6.47;2.42;;;;;;;12.75;63.45;102200.22;4899416;29;20032;-91
2023/05/20 00:03:25;;;;;;;6.60;2.25;;;;;;;12.73;64.42;102187.84;4882393;29;20454;-91
2023/05/20 00:05:53;;;;;;;5.70;2.13;;;;;;;12.71;64.39;102187.19;4898689;29;20036;-91
2023/05/20 00:08:21;;;;;;;8.48;2.30;;;;;;;12.69;64.83;102192.00;4899050;29;20036;-90
2023/05/20 00:10:50;;;;;;;6.33;2.10;;;;;;;12.63;65.01;102175.41;4882205;29;20076;-91
2023/05/20 00:13:22;;;;;;;6.15;2.30;;;;;;;12.58;65.93;102187.94;4882298;29;20064;-90
2023/05/20 00:15:48;;;;;;;10.07;2.10;;;;;;;12.54;66.14;102186.63;4882777;29;20051;-90
2023/05/20 00:18:22;;;;;;;5.03;2.37;;;;;;;12.53;66.68;102191.22;4882400;29;20466;-90
2023/05/20 00:20:53;;;;;;;8.65;2.22;;;;;;;12.48;66.54;102193.72;4882340;29;20040;-90
2023/05/20 00:23:23;;;;;;;9.90;2.75;;;;;;;12.49;67.61;102200.84;4866700;29;20048;-91
2023/05/20 00:25:54;;;;;;;9.32;3.00;;;;;;;12.43;67.92;102197.03;4866666;29;20029;-91
2023/05/20 00:28:29;;;;;;;7.57;2.65;;;;;;;12.40;68.59;102196.53;4881741;29;20084;-91
2023/05/20 00:31:23;;;;;;;5.90;2.40;;;;;;;12.36;66.86;102198.81;4898682;29;20025;-91
2023/05/20 00:33:51;;;;;;;6.88;2.40;;;;;;;12.35;69.06;102196.31;4877359;29;20115;-91
2023/05/20 00:36:44;;;;;;;8.80;2.45;;;;;;;12.28;69.66;102177.16;4865960;29;20044;-91
2023/05/20 00:39:18;;;;;;;10.45;2.63;;;;;;;12.25;68.88;102186.59;4882028;29;20036;-91
2023/05/20 00:41:47;;;;;;;5.55;2.40;;;;;;;12.20;69.89;102180.88;4866320;29;20449;-90
2023/05/20 00:44:25;;;;;;;;;;;;;;;;;;;;;
2023/05/20 00:46:54;;;;;;;9.18;3.00;;;;;;;12.08;71.07;102185.97;4887384;29;20042;-91
2023/05/20 00:49:33;;;;;;;7.60;2.45;;;;;;;12.06;71.03;102182.63;4885371;29;20448;-90
2023/05/20 00:51:59;;;;;;;7.22;2.92;;;;;;;12.03;71.21;102185.72;4871578;29;20068;-90
2023/05/20 00:54:35;;;;;;;7.47;2.93;;;;;;;11.98;72.05;102187.34;4885370;29;20060;-90
2023/05/20 00:57:05;;;;;;;8.75;2.58;;;;;;;11.94;71.75;102175.97;4885710;29;20048;-90
2023/05/20 00:59:53;;;;;;;8.18;2.70;;;;;;;11.94;72.07;102189.59;4885488;29;20029;-90
2023/05/20 01:02:21;;;;;;;5.38;2.35;;;;;;;11.89;72.56;102179.25;4872077;29;20131;-90
2023/05/20 01:04:47;;;;;;;10.23;2.83;;;;;;;11.81;72.97;102173.94;4884812;29;20473;-90
2023/05/20 01:07:15;;;;;;;9.47;3.00;;;;;;;11.79;73.16;102180.59;4884765;29;20057;-90
2023/05/20 01:09:53;;;;;;;8.07;3.08;;;;;;;11.70;74.03;102177.97;4884750;29;20044;-90
2023/05/20 01:12:38;;;;;;;6.55;3.00;;;;;;;11.67;72.99;102170.19;4901720;29;20119;-90
2023/05/20 01:15:16;;;;;;;7.03;2.50;;;;;;;11.62;74.40;102175.38;4885376;29;20473;-90
2023/05/20 01:17:54;;;;;;;9.05;2.70;;;;;;;11.58;74.02;102176.78;4885345;29;20458;-90
2023/05/20 01:20:26;;;;;;;6.50;2.72;;;;;;;11.54;75.26;102170.03;4884939;29;20532;-90
2023/05/20 01:23:04;;;;;;;6.80;2.83;;;;;;;11.53;75.28;102171.94;4884743;29;20413;-90
2023/05/20 01:25:48;;;;;;;;;;;;;;;;;;;;;
2023/05/20 01:28:19;;;;;;;10.57;3.53;;;;;;;11.44;75.75;102167.63;4902798;29;20373;-90
2023/05/20 01:30:58;;;;;;;10.52;2.80;;;;;;;11.42;75.52;102169.69;4869651;29;20049;-91
2023/05/20 01:33:37;;;;;;;12.00;3.40;;;;;;;11.38;75.62;102176.50;4884718;29;20116;-90
2023/05/20 01:36:25;;;;;;;7.43;3.47;;;;;;;11.34;76.33;102176.06;4901511;29;20037;-90
2023/05/20 01:38:56;;;;;;;7.40;2.78;;;;;;;11.32;76.78;102171.84;4885130;29;20374;-90
2023/05/20 01:41:24;;;;;;;12.17;3.27;;;;;;;11.27;76.84;102171.56;4884349;29;20489;-90
2023/05/20 01:43:57;;;;;;;11.10;2.85;;;;;;;11.23;77.61;102165.66;4883823;29;20059;-90
2023/05/20 01:49:10;;;;;;;9.90;3.28;;;;;;;11.17;78.09;102169.13;4902357;29;20044;-91
2023/05/20 01:51:57;;;;;;;8.80;3.17;;;;;;;11.12;77.28;102155.28;4884364;29;20072;-90
2023/05/20 01:54:31;;;;;;;8.77;3.37;;;;;;;11.11;78.68;102159.00;4883687;29;20093;-90
2023/05/20 01:57:36;;;;;;;7.60;3.20;;;;;;;11.08;77.02;102162.09;4884329;29;20055;-90
2023/05/20 02:00:17;;;;;;;10.63;3.47;;;;;;;11.07;78.75;102163.97;4885020;29;20120;-91
2023/05/20 02:02:43;;;;;;;15.07;3.38;;;;;;;11.02;79.26;102161.81;4884803;29;20036;-90
2023/05/20 02:05:17;;;;;;;9.00;3.63;;;;;;;11.01;80.16;102160.16;4884192;29;20051;-90
2023/05/20 02:07:50;;;;;;;6.20;3.37;;;;;;;10.98;80.26;102154.22;4884341;29;20036;-90
2023/05/20 02:10:18;;;;;;;8.60;3.22;;;;;;;10.94;79.71;102152.91;4869393;29;20033;-90
2023/05/20 02:12:46;;;;;;;14.20;3.20;;;;;;;10.88;80.81;102146.38;4883873;29;20029;-91
2023/05/20 02:15:14;;;;;;;7.78;3.08;;;;;;;10.84;80.64;102148.59;4883830;29;20021;-90
2023/05/20 02:17:45;;;;;;;12.13;4.45;;;;;;;10.81;81.27;102148.97;4883897;29;20072;-90
2023/05/20 02:20:21;;;;;;;7.90;2.90;;;;;;;10.83;81.56;102154.22;4884372;29;20078;-90
2023/05/20 02:22:46;;;;;;;7.40;3.40;;;;;;;10.80;82.31;102160.84;4883950;29;20049;-90
2023/05/20 02:25:12;;;;;;;7.45;3.30;;;;;;;10.77;81.87;102153.06;4883717;29;20405;-90
2023/05/20 02:27:42;;;;;;;10.53;3.23;;;;;;;10.74;82.40;102148.00;4884134;29;20036;-90
2023/05/20 02:30:11;;;;;;;8.85;3.83;;;;;;;10.70;82.67;102147.56;4883749;29;20028;-90
2023/05/20 02:32:41;;;;;;;9.37;2.90;;;;;;;10.69;83.05;102139.59;4883253;29;20036;-90
2023/05/20 02:35:16;;;;;;;7.30;3.20;;;;;;;10.62;83.63;102139.47;4868226;29;20033;-90
2023/05/20 02:37:53;;;;;;;10.35;3.90;;;;;;;10.58;83.31;102140.03;4883809;29;20043;-90
2023/05/20 02:40:22;;;;;;;8.25;3.67;;;;;;;10.58;83.79;102140.88;4884083;29;20046;-90
2023/05/20 02:43:00;;;;;;;;;;;;;;;;;;;;;
2023/05/20 02:45:31;;;;;;;5.30;3.60;;;;;;;10.52;84.12;102144.31;4885166;29;20385;-91
2023/05/20 02:48:01;;;;;;;7.00;3.35;;;;;;;10.51;84.52;102148.06;4883382;29;20124;-90
2023/05/20 02:50:35;;;;;;;11.52;4.07;;;;;;;10.49;84.49;102140.09;4883564;29;20037;-90
2023/05/20 02:53:12;;;;;;;6.43;3.58;;;;;;;10.49;85.25;102137.38;4900422;29;20033;-90
2023/05/20 02:55:56;;;;;;;;;;;;;;;;;;;;;
2023/05/20 02:58:25;;;;;;;8.67;3.47;;;;;;;10.45;85.87;102141.50;4901286;29;20067;-90
2023/05/20 03:04:15;;;;;;;10.45;3.42;;;;;;;10.42;85.80;102141.00;4899698;29;20032;-91
2023/05/20 03:06:43;;;;;;;8.32;3.65;;;;;;;10.43;86.61;102142.72;4882856;29;20064;-90
2023/05/20 03:09:16;;;;;;;9.98;3.47;;;;;;;10.37;86.61;102140.72;4868140;29;20052;-90
2023/05/20 03:11:54;;;;;;;;;;;;;;;;;;;;;
2023/05/20 03:14:22;;;;;;;11.70;4.20;;;;;;;10.33;87.41;102137.50;4884066;29;20039;-90
2023/05/20 03:16:54;;;;;;;6.88;3.45;;;;;;;10.33;87.18;102146.53;4882520;29;20481;-89
2023/05/20 03:19:22;;;;;;;9.40;3.78;;;;;;;10.30;87.73;102137.88;4883945;29;20051;-89
2023/05/20 03:22:15;;;;;;;7.57;3.50;;;;;;;10.30;87.38;102146.84;4882060;29;20035;-90
2023/05/20 03:24:47;;;;;;;7.33;4.00;;;;;;;10.29;87.74;102136.16;4882401;29;20362;-90
2023/05/20 03:27:17;;;;;;;8.60;3.53;;;;;;;10.29;87.82;102137.03;4899416;29;20048;-90
2023/05/20 03:30:02;;;;;;;9.48;3.70;;;;;;;10.26;87.53;102141.94;4882447;29;20123;-89
2023/05/20 03:32:29;;;;;;;10.50;3.70;;;;;;;10.23;88.43;102139.59;4854057;29;20044;-90
2023/05/20 03:35:20;;;;;;;9.20;3.90;;;;;;;10.22;87.98;102144.19;4882511;29;20127;-90
2023/05/20 03:37:50;;;;;;;11.27;3.47;;;;;;;10.22;89.00;102143.38;4882153;29;20501;-90
2023/05/20 03:40:22;;;;;;;10.43;3.90;;;;;;;10.22;89.05;102144.19;4882301;29;20040;-90
2023/05/20 03:42:53;;;;;;;10.07;4.18;;;;;;;10.20;88.94;102143.53;4882409;29;20115;-90
2023/05/20 03:45:22;;;;;;;8.40;3.72;;;;;;;10.18;90.39;102141.00;4883227;29;20124;-90
2023/05/20 03:48:19;;;;;;;10.35;3.97;;;;;;;10.13;90.45;102129.03;4899407;29;20040;-90
2023/05/20 03:50:44;;;;;;;9.80;3.83;;;;;;;10.12;90.22;102135.47;4882861;29;20111;-90
2023/05/20 03:53:13;;;;;;;7.00;4.00;;;;;;;10.15;90.37;102145.94;4881992;29;20552;-90
2023/05/20 03:56:01;;;;;;;10.75;4.68;;;;;;;10.10;89.56;102130.22;4866697;29;20043;-90
2023/05/20 03:58:30;;;;;;;13.45;3.83;;;;;;;10.13;90.60;102134.44;4882605;29;20044;-90
2023/05/20 04:01:07;;;;;;;8.68;3.67;;;;;;;10.12;90.61;102135.47;4866457;29;20048;-90
2023/05/20 04:03:35;;;;;;;10.70;3.53;;;;;;;10.16;90.80;102134.09;4882027;29;20074;-90
2023/05/20 04:06:01;;;;;;;9.27;3.67;;;;;;;10.13;90.72;102131.72;4866174;29;20080;-89
2023/05/20 04:08:34;;;;;;;8.03;3.97;;;;;;;10.14;91.14;102131.56;4882351;29;20449;-90
2023/05/20 04:11:02;;;;;;;9.27;3.40;;;;;;;10.15;91.67;102135.09;4883265;29;20272;-89
2023/05/20 04:13:32;;;;;;;9.02;4.25;;;;;;;10.18;90.95;102142.88;4882329;29;20054;-90
2023/05/20 04:16:00;;;;;;;9.65;4.43;;;;;;;10.19;91.15;102142.69;4866998;29;20499;-91
2023/05/20 04:18:30;;;;;;;8.98;3.45;;;;;;;10.25;91.23;102146.56;4881498;29;20044;-91
2023/05/20 04:20:58;;;;;;;10.73;3.78;;;;;;;10.29;91.40;102136.16;4866454;29;20048;-90
2023/05/20 04:23:33;;;;;;;10.23;3.60;;;;;;;10.31;91.30;102139.56;4898668;29;20048;-90
2023/05/20 04:26:01;;;;;;;8.77;4.20;;;;;;;10.34;90.95;102142.78;4882272;29;20068;-90
2023/05/20 04:28:36;;;;;;;8.13;3.97;;;;;;;10.38;91.09;102140.56;4881632;29;20136;-90
2023/05/20 04:31:07;;;;;;;10.25;3.38;;;;;;;10.39;91.07;102144.94;4882392;29;20037;-90
2023/05/20 04:33:46;;;;;;;;;;;;;;;;;;;;;
2023/05/20 04:36:14;;;;;;;6.93;3.70;;;;;;;10.47;90.75;102138.63;4899750;29;20036;-90
2023/05/20 04:38:48;;;;;;;9.00;4.00;;;;;;;10.52;90.65;102147.88;4881669;29;20043;-91
2023/05/20 04:41:16;;;;;;;14.40;4.65;;;;;;;10.53;91.06;102141.41;4882007;29;20160;-89
2023/05/20 04:43:48;;;;;;;8.40;3.78;;;;;;;10.58;90.74;102140.88;4898095;29;20092;-90
2023/05/20 04:46:43;;;;;;;8.85;3.88;;;;;;;10.61;90.21;102143.22;4882191;29;20127;-90
2023/05/20 04:49:11;;;;;;;7.50;4.00;;;;;;;10.69;90.65;102142.31;4881663;29;20048;-90
2023/05/20 04:51:39;;;;;;;8.57;3.90;;;;;;;10.74;90.36;102149.91;4881038;29;20040;-89
2023/05/20 04:54:09;;;;;;;11.82;4.20;;;;;;;10.77;90.90;102153.06;4898374;29;20037;-90
2023/05/20 04:56:39;;;;;;;7.28;4.05;;;;;;;10.80;90.24;102139.13;4882396;29;20096;-90
2023/05/20 04:59:08;;;;;;;9.43;4.00;;;;;;;10.86;90.01;102140.25;4881243;29;20037;-90
2023/05/20 05:01:54;;;;;;;7.47;4.10;;;;;;;10.93;90.17;102151.25;4881484;29;20063;-90
2023/05/20 05:04:27;;;;;;;8.32;4.15;;;;;;;10.98;89.49;102140.66;4881387;29;20060;-90
2023/05/20 05:07:00;;;;;;;7.95;4.20;;;;;;;11.03;89.61;102138.22;4865776;29;20397;-90
2023/05/20 05:09:31;;;;;;;9.63;3.95;;;;;;;11.05;89.64;102125.28;4850594;29;20036;-90
2023/05/20 05:12:03;;;;;;;8.70;4.05;;;;;;;11.10;89.86;102130.16;4866080;29;20032;-90
2023/05/20 05:14:34;;;;;;;8.33;3.90;;;;;;;11.14;89.22;102126.03;4866007;29;20045;-90
2023/05/20 05:17:04;;;;;;;9.73;3.97;;;;;;;11.22;88.83;102134.94;4881059;29;20046;-90
2023/05/20 05:19:29;;;;;;;10.25;3.92;;;;;;;11.26;89.46;102123.69;4866106;29;20045;-84
2023/05/20 05:21:57;;;;;;;7.33;3.97;;;;;;;11.39;88.86;102130.13;4898230;29;20458;-84
2023/05/20 05:24:23;;;;;;;7.78;3.90;;;;;;;11.48;88.55;102125.44;4897824;29;20132;-83
2023/05/20 05:26:53;;;;;;;9.93;4.27;;;;;;;11.55;88.31;102130.97;4865591;29;20128;-83
2023/05/20 05:29:18;;;;;;;7.40;3.90;;;;;;;11.61;87.40;102130.19;4865838;29;20043;-83
2023/05/20 05:31:43;;;;;;;8.20;4.03;;;;;;;11.69;87.37;102129.22;4869151;29;20036;-84
2023/05/20 05:34:09;;;;;;;8.00;3.88;;;;;;;11.75;86.97;102123.03;4869393;29;20099;-83
2023/05/20 05:36:34;;;;;;;8.27;4.10;;;;;;;11.82;86.29;102123.94;4884113;29;20405;-84
2023/05/20 05:39:00;;;;;;;9.40;3.47;;;;;;;11.88;86.51;102120.44;4901454;29;20393;-84
2023/05/20 05:41:25;;;;;;;9.45;3.78;;;;;;;11.97;86.09;102123.91;4884658;29;20047;-83
2023/05/20 05:43:51;;;;;;;9.70;4.00;;;;;;;12.00;85.67;102118.13;4869270;29;20043;-83
2023/05/20 05:46:17;;;;;;;6.70;3.70;;;;;;;12.09;85.74;102125.09;4869125;29;20507;-83
2023/05/20 05:48:47;;;;;;;6.67;3.40;;;;;;;12.16;84.44;102114.28;4868952;29;20537;-83
2023/05/20 05:51:13;;;;;;;9.43;4.03;;;;;;;12.25;84.80;102117.69;4901206;29;20035;-84
2023/05/20 05:53:38;;;;;;;7.40;3.43;;;;;;;12.31;84.85;102118.81;4901725;29;20040;-84
2023/05/20 05:56:04;;;;;;;9.93;3.63;;;;;;;12.37;84.21;102118.88;4884609;29;20040;-84
2023/05/20 05:58:30;;;;;;;7.83;4.00;;;;;;;12.43;83.76;102115.38;4901078;29;20100;-84
2023/05/20 06:00:56;;;;;;;11.80;3.90;;;;;;;12.51;82.98;102121.69;4901659;29;20041;-83
2023/05/20 06:03:21;;;;;;;8.67;3.83;;;;;;;12.58;81.90;102122.59;4868838;29;20047;-84
2023/05/20 06:05:47;;;;;;;7.05;3.50;;;;;;;12.67;81.74;102126.00;4901205;29;20068;-84
2023/05/20 06:08:20;;;;;;;7.80;4.17;;;;;;;12.73;81.62;102128.78;4868706;29;20462;-83
2023/05/20 06:10:49;;;;;;;7.38;4.20;;;;;;;12.77;81.06;102126.47;4901189;29;20438;-83
2023/05/20 06:13:15;;;;;;;8.10;3.53;;;;;;;12.80;81.24;102118.78;4883976;29;20033;-84
2023/05/20 06:15:40;;;;;;;8.23;3.50;;;;;;;12.91;80.52;102125.53;4900621;29;20032;-83
2023/05/20 06:18:05;;;;;;;6.10;3.53;;;;;;;12.92;80.17;102116.34;4883686;29;20077;-84
2023/05/20 06:20:31;;;;;;;5.67;3.57;;;;;;;12.98;80.58;102117.41;4868117;29;20083;-83
2023/05/20 06:22:56;;;;;;;8.57;3.83;;;;;;;13.01;80.98;102106.13;4900471;29;20372;-83
2023/05/20 06:25:22;;;;;;;8.63;4.10;;;;;;;13.09;81.49;102118.72;4868125;29;20040;-84
2023/05/20 06:27:48;;;;;;;6.83;4.00;;;;;;;13.12;80.33;102113.75;4901061;29;20029;-84
2023/05/20 06:30:13;;;;;;;7.38;3.70;;;;;;;13.16;80.76;102105.97;4868286;29;20096;-83
2023/05/20 06:32:39;;;;;;;5.97;3.37;;;;;;;13.28;78.66;102103.53;4900632;29;20064;-83
2023/05/20 06:35:04;;;;;;;6.13;3.40;;;;;;;13.32;78.44;102091.19;4883799;29;20456;-84
2023/05/20 06:37:30;;;;;;;7.38;3.35;;;;;;;13.38;78.23;102098.56;4900411;29;20032;-83
2023/05/20 06:39:55;;;;;;;7.43;3.30;;;;;;;13.45;77.05;102096.72;4883586;29;20032;-83
2023/05/20 06:42:21;;;;;;;7.03;3.57;;;;;;;13.50;76.81;102094.19;4867267;29;20119;-83
2023/05/20 06:44:46;;;;;;;5.63;3.38;;;;;;;13.59;76.67;102094.84;4883200;29;20095;-84
2023/05/20 06:47:16;;;;;;;7.67;3.27;;;;;;;13.62;76.68;102097.16;4883028;29;20500;-83
2023/05/20 06:49:42;;;;;;;8.80;3.47;;;;;;;13.68;76.71;102085.47;4868395;29;20041;-83
2023/05/20 06:52:08;;;;;;;6.63;3.65;;;;;;;13.73;76.46;102084.84;4867820;29;20037;-83
2023/05/20 06:54:38;;;;;;;8.00;3.80;;;;;;;13.81;76.33;102086.53;4883519;29;20033;-83
2023/05/20 06:57:05;;;;;;;12.55;3.92;;;;;;;13.90;75.35;102082.56;4899878;29;20119;-83
2023/05/20 06:59:31;;;;;;;7.53;3.45;;;;;;;13.97;75.33;102079.84;4867813;29;20119;-85
2023/05/20 07:01:56;;;;;;;6.40;3.30;;;;;;;14.06;74.55;102077.75;4899878;29;20032;-84
2023/05/20 07:04:22;;;;;;;9.90;3.60;;;;;;;14.16;74.13;102089.09;4883116;29;20068;-84
2023/05/20 07:06:47;;;;;;;6.95;3.53;;;;;;;14.18;74.28;102066.00;4899486;29;20068;-84
2023/05/20 07:09:13;;;;;;;7.93;3.67;;;;;;;14.31;73.51;102077.97;4883025;29;20077;-84
2023/05/20 07:11:38;;;;;;;5.30;3.07;;;;;;;14.40;72.81;102076.69;4882990;29;20112;-84
2023/05/20 07:14:04;;;;;;;7.63;3.30;;;;;;;14.50;72.41;102082.56;4882937;29;20096;-84
2023/05/20 07:16:31;;;;;;;8.93;3.20;;;;;;;14.53;71.06;102075.88;4867535;29;20028;-84
2023/05/20 07:18:59;;;;;;;7.23;3.10;;;;;;;14.66;69.70;102077.75;4852135;29;20041;-84
2023/05/20 07:21:25;;;;;;;6.75;2.90;;;;;;;14.75;69.55;102079.22;4882839;29;20060;-84
2023/05/20 07:23:50;;;;;;;4.28;2.60;;;;;;;14.84;67.84;102074.38;4882406;29;20446;-84
2023/05/20 07:26:16;;;;;;;6.33;2.43;;;;;;;14.87;68.34;102063.00;4882894;29;20044;-84
2023/05/20 07:28:42;;;;;;;6.20;3.23;;;;;;;14.94;68.27;102065.72;4882934;29;20036;-84
2023/05/20 07:31:08;;;;;;;5.60;2.88;;;;;;;15.01;66.47;102059.16;4867165;29;20028;-84
2023/05/20 07:33:33;;;;;;;5.43;2.70;;;;;;;15.09;66.27;102061.66;4899470;29;20031;-84
2023/05/20 07:35:59;;;;;;;8.60;2.83;;;;;;;15.20;66.76;102057.41;4866997;29;20036;-85
2023/05/20 07:38:27;;;;;;;5.10;2.90;;;;;;;15.27;66.58;102054.66;4882703;29;20032;-88
2023/05/20 07:40:55;;;;;;;6.60;2.90;;;;;;;15.32;66.09;102054.81;4867556;29;20039;-87
2023/05/20 07:43:21;;;;;;;7.13;2.75;;;;;;;15.38;64.53;102053.13;4899365;29;20067;-85
2023/05/20 07:45:51;;;;;;;5.60;2.78;;;;;;;15.45;65.03;102048.47;4882108;29;20136;-85
2023/05/20 07:48:16;;;;;;;3.72;2.53;;;;;;;15.52;65.24;102057.47;4866486;29;20049;-85
2023/05/20 07:50:42;;;;;;;10.57;3.10;;;;;;;15.63;64.15;102050.44;4866531;29;20048;-84
2023/05/20 07:53:10;;;;;;;4.17;2.43;;;;;;;15.69;63.94;102048.75;4865979;29;20036;-85
2023/05/20 07:55:36;;;;;;;6.38;2.78;;;;;;;15.73;64.23;102063.66;4866787;29;20096;-88
2023/05/20 07:58:05;;;;;;;5.27;2.50;;;;;;;15.72;62.52;102048.28;4898810;29;20115;-87
2023/05/20 08:00:33;;;;;;;4.57;2.88;;;;;;;15.71;62.24;102042.00;4898928;29;20104;-88
2023/05/20 08:03:01;;;;;;;4.72;2.80;;;;;;;15.72;62.22;102048.28;4898613;29;20484;-88
2023/05/20 08:05:27;;;;;;;4.72;2.72;;;;;;;15.75;62.79;102047.84;4882062;29;20478;-88
2023/05/20 08:07:55;;;;;;;5.50;2.73;;;;;;;15.79;62.97;102041.75;4881758;29;20033;-88
2023/05/20 08:10:21;;;;;;;5.35;2.83;;;;;;;15.83;61.03;102044.06;4881618;29;20073;-88
2023/05/20 08:12:57;;;;;;;;;;;;;;;;;;;;;
2023/05/20 08:15:37;;;;;;;7.07;2.85;;;;;;;15.84;61.56;102032.03;4899233;29;20029;-88
2023/05/20 08:18:11;;;;;;;8.18;2.70;;;;;;;15.91;61.30;102035.56;4866846;29;20039;-89
2023/05/20 08:20:41;;;;;;;3.92;2.35;;;;;;;15.98;61.79;102038.25;4881776;29;20576;-89
2023/05/20 08:23:07;;;;;;;5.00;2.78;;;;;;;16.04;60.61;102026.41;4865635;29;20084;-88
2023/05/20 08:25:37;;;;;;;3.97;2.60;;;;;;;16.12;60.76;102034.34;4881714;29;20473;-88
2023/05/20 08:28:04;;;;;;;5.85;2.63;;;;;;;16.17;59.22;102020.00;4881728;29;20160;-88
2023/05/20 08:30:30;;;;;;;5.45;2.97;;;;;;;16.22;58.87;102023.72;4881535;29;20112;-87
2023/05/20 08:33:20;;;;;;;11.30;3.30;;;;;;;16.26;59.51;102021.38;4865668;29;20069;-88
2023/05/20 08:35:51;;;;;;;6.15;2.55;;;;;;;16.36;59.21;102024.44;4882223;29;20374;-88
2023/05/20 08:38:19;;;;;;;8.95;2.78;;;;;;;16.40;57.43;102016.59;4881390;29;20130;-89
2023/05/20 08:40:50;;;;;;;8.00;2.80;;;;;;;16.51;56.27;102015.03;4881564;29;20495;-89
2023/05/20 08:43:19;;;;;;;5.07;2.40;;;;;;;16.59;57.35;102006.50;4882030;29;20033;-90
2023/05/20 08:45:47;;;;;;;4.40;2.50;;;;;;;16.70;56.61;102013.13;4881474;29;20115;-89
2023/05/20 08:48:21;;;;;;;6.47;2.80;;;;;;;16.76;55.58;102007.56;4881562;29;20397;-89
2023/05/20 08:54:20;;;;;;;;;;;;;;;;;;;;;
2023/05/20 08:56:52;;;;;;;6.93;2.90;;;;;;;17.12;55.45;102005.06;4898462;29;20036;-89
2023/05/20 08:59:25;;;;;;;5.95;3.05;;;;;;;17.20;54.96;102007.50;4881665;29;20100;-89
2023/05/20 09:02:01;;;;;;;3.95;2.72;;;;;;;17.25;54.86;102004.06;4865778;29;20092;-90
2023/05/20 09:04:30;;;;;;;8.00;2.65;;;;;;;17.39;56.18;102011.03;4899925;29;20044;-87
2023/05/20 09:07:03;;;;;;;5.25;2.60;;;;;;;17.53;54.25;101997.94;4885057;29;20115;-87
2023/05/20 09:09:29;;;;;;;6.07;2.53;;;;;;;17.68;53.61;101997.50;4884630;29;20033;-87
2023/05/20 09:11:55;;;;;;;8.70;2.75;;;;;;;17.83;53.67;102002.53;4884886;29;20029;-87
2023/05/20 09:14:31;;;;;;;;;;;;;;;;;;;;;
2023/05/20 09:17:03;;;;;;;4.57;2.53;;;;;;;17.98;51.97;101986.50;4902061;29;20037;-87
2023/05/20 09:19:34;;;;;;;5.43;2.70;;;;;;;18.05;51.54;101989.97;4869653;29;20040;-87
2023/05/20 09:22:04;;;;;;;8.57;2.47;;;;;;;18.21;52.81;101991.13;4869859;29;20043;-88
2023/05/20 09:24:29;;;;;;;6.90;2.92;;;;;;;18.32;50.85;101980.38;4884128;29;20044;-87
2023/05/20 09:27:06;;;;;;;5.75;2.70;;;;;;;18.50;50.06;101982.16;4884581;29;20036;-87
2023/05/20 09:29:32;;;;;;;8.23;2.97;;;;;;;18.58;49.02;101990.03;4884854;29;20115;-87
2023/05/20 09:32:19;;;;;;;5.75;2.40;;;;;;;18.72;49.55;101983.22;4901314;29;20036;-88
2023/05/20 09:34:48;;;;;;;7.82;2.35;;;;;;;18.91;49.54;101983.91;4884725;29;20183;-87
2023/05/20 09:37:23;;;;;;;5.20;3.10;;;;;;;19.06;48.41;101982.53;4885253;29;20062;-87
2023/05/20 09:40:06;;;;;;;5.35;2.58;;;;;;;19.40;49.17;101979.84;4884146;29;20033;-87
2023/05/20 09:42:51;;;;;;;7.40;2.60;;;;;;;19.61;48.52;101976.41;4885557;29;20120;-87
2023/05/20 09:45:21;;;;;;;3.63;2.65;;;;;;;19.73;47.32;101990.09;4901154;29;20055;-87
2023/05/20 09:47:52;;;;;;;3.95;2.78;;;;;;;19.65;46.39;101982.25;4884110;29;20083;-87
2023/05/20 09:50:25;;;;;;;4.05;2.63;;;;;;;19.78;46.81;101981.09;4900965;29;20052;-87
2023/05/20 09:52:52;;;;;;;4.15;2.80;;;;;;;20.03;46.88;101971.59;4884560;29;20059;-87
2023/05/20 09:55:22;;;;;;;5.07;2.90;;;;;;;20.33;45.37;101987.75;4883808;29;20025;-88
2023/05/20 09:58:14;;;;;;;6.30;2.40;;;;;;;20.56;46.45;101985.84;4884409;29;20029;-87
2023/05/20 10:00:53;;;;;;;6.78;2.75;;;;;;;20.89;45.10;101981.34;4884948;29;20062;-88
2023/05/20 10:03:36;;;;;;;5.97;2.60;;;;;;;21.01;44.17;101966.31;4883655;29;20051;-87
2023/05/20 10:06:43;;;;;;;4.10;2.45;;;;;;;21.14;44.59;101962.31;4885013;29;20457;-87
2023/05/20 10:09:33;;;;;;;5.83;2.60;;;;;;;21.25;43.96;101979.00;4884474;29;20072;-87
2023/05/20 10:12:11;;;;;;;4.72;3.10;;;;;;;21.58;43.08;101964.13;4884587;29;20043;-90
2023/05/20 10:14:55;;;;;;;5.20;2.70;;;;;;;21.62;41.77;101954.25;4884264;29;20025;-90
2023/05/20 10:17:45;;;;;;;5.85;2.63;;;;;;;21.85;42.56;101957.72;4883308;29;20052;-90
2023/05/20 10:20:11;;;;;;;6.40;2.85;;;;;;;21.95;41.59;101948.69;4883693;29;20489;-90
2023/05/20 10:22:44;;;;;;;4.20;2.67;;;;;;;22.26;40.32;101949.72;4868146;29;20128;-90
2023/05/20 10:25:22;;;;;;;3.47;2.47;;;;;;;22.52;39.03;101949.88;4883866;29;20084;-89
2023/05/20 10:27:53;;;;;;;3.88;2.50;;;;;;;22.88;39.02;101944.47;4884435;29;20032;-90
2023/05/20 10:30:29;;;;;;;4.03;2.55;;;;;;;23.27;38.65;101944.06;4884316;29;20060;-90
2023/05/20 10:33:04;;;;;;;4.85;2.47;;;;;;;23.32;38.45;101943.22;4883497;29;20433;-90
2023/05/20 10:35:32;;;;;;;7.07;2.70;;;;;;;23.61;37.50;101937.97;4883407;29;20112;-89
2023/05/20 10:38:20;;;;;;;6.72;2.40;;;;;;;23.81;37.42;101931.56;4883171;29;20052;-90
2023/05/20 10:40:56;;;;;;;4.63;2.70;;;;;;;23.65;37.63;101928.84;4869014;29;20040;-89
2023/05/20 10:43:42;;;;;;;;;;;;;;;;;;;;;
2023/05/20 10:46:17;;;;;;;5.20;2.53;;;;;;;23.31;37.64;101928.53;4900565;29;20040;-90
2023/05/20 10:48:52;;;;;;;3.60;2.33;;;;;;;23.35;37.24;101923.28;4883534;29;20123;-90
2023/05/20 10:51:21;;;;;;;3.85;2.40;;;;;;;23.65;37.10;101914.97;4868800;29;20052;-90
2023/05/20 10:53:57;;;;;;;;;;;;;;;;;;;;;
2023/05/20 10:56:24;;;;;;;4.30;2.60;;;;;;;23.99;36.84;101916.34;4900898;29;20075;-89
2023/05/20 10:58:53;;;;;;;5.25;2.50;;;;;;;24.11;35.18;101919.66;4882628;29;20036;-90
2023/05/20 11:01:23;;;;;;;5.87;2.60;;;;;;;24.36;35.82;101923.47;4867355;29;20036;-90
2023/05/20 11:03:50;;;;;;;6.18;2.78;;;;;;;24.44;35.33;101913.72;4883178;29;20032;-90
2023/05/20 11:06:17;;;;;;;3.42;2.60;;;;;;;24.42;35.20;101911.22;4882431;29;20033;-90
2023/05/20 11:08:45;;;;;;;7.80;2.97;;;;;;;24.32;35.69;101903.75;4882996;29;20035;-90
2023/05/20 11:11:12;;;;;;;7.63;2.70;;;;;;;24.37;36.04;101905.69;4882846;29;20044;-90
2023/05/20 11:13:41;;;;;;;3.10;2.40;;;;;;;25.24;35.17;101898.00;4883046;29;20127;-89
2023/05/20 11:16:11;;;;;;;4.90;2.75;;;;;;;26.76;33.45;101893.91;4883045;29;20466;-87
2023/05/20 11:18:44;;;;;;;3.30;2.20;;;;;;;29.44;29.24;101897.09;4868274;29;20047;-88
2023/05/20 11:21:12;;;;;;;4.22;2.47;;;;;;;31.38;25.59;101894.47;4883338;29;20029;-86
2023/05/20 11:23:45;;;;;;;4.63;2.45;;;;;;;33.24;24.46;101899.63;4881899;29;20060;-86
2023/05/20 11:26:15;;;;;;;4.30;2.30;;;;;;;34.06;22.59;101881.13;4867236;29;20044;-86
2023/05/20 11:28:47;;;;;;;3.65;2.63;;;;;;;34.68;21.27;101881.91;4867408;29;20029;-86
2023/05/20 11:31:20;;;;;;;3.50;2.50;;;;;;;35.05;21.92;101883.78;4882498;29;20032;-86
2023/05/20 11:34:08;;;;;;;8.90;2.70;;;;;;;34.34;22.12;101877.63;4851269;29;20553;-86
2023/05/20 11:36:40;;;;;;;2.72;2.50;;;;;;;36.17;20.17;101882.75;4882652;29;20088;-86
2023/05/20 11:39:16;;;;;;;5.13;2.93;;;;;;;36.59;19.56;101875.63;4882408;29;20021;-86
2023/05/20 11:41:42;;;;;;;5.07;2.70;;;;;;;34.93;20.00;101860.13;4882515;29;20037;-86
2023/05/20 11:44:14;;;;;;;7.78;3.03;;;;;;;33.04;22.43;101868.38;4882191;29;20458;-86
2023/05/20 11:46:46;;;;;;;5.63;3.05;;;;;;;32.10;23.24;101868.69;4882373;29;20032;-86
2023/05/20 11:49:15;;;;;;;3.92;2.90;;;;;;;33.47;21.95;101866.31;4898728;29;20115;-86
2023/05/20 11:51:59;;;;;;;6.90;2.63;;;;;;;34.97;21.08;101871.50;4882389;29;20505;-86
2023/05/20 11:54:30;;;;;;;4.05;2.45;;;;;;;35.13;20.89;101871.53;4868875;29;20052;-86
2023/05/20 11:56:58;;;;;;;5.90;2.78;;;;;;;36.43;19.63;101857.91;4881992;29;20032;-86
2023/05/20 11:59:33;;;;;;;5.60;2.92;;;;;;;36.68;18.98;101853.63;4882367;29;20381;-86
2023/05/20 12:01:59;;;;;;;4.32;2.67;;;;;;;36.98;18.73;101853.03;4883128;29;20040;-86
2023/05/20 12:04:32;;;;;;;6.57;2.87;;;;;;;36.34;19.65;101838.34;4899055;29;20032;-86
2023/05/20 12:07:07;;;;;;;6.70;3.25;;;;;;;37.22;17.78;101845.41;4882584;29;20036;-86
2023/05/20 12:09:35;;;;;;;4.63;2.83;;;;;;;38.11;18.12;101838.81;4882473;29;20047;-86